sensor_id;sensor_type;location;lat;lon;timestamp;P1;durP1;ratioP1;P2;durP2;ratioP2
43527;SDS011;52359;42.658;23.320;2023-07-29T06:04:05;7.82;;;3.92;;
43527;SDS011;52359;42.658;23.320;2023-07-29T06:06:31;5.05;;;3.83;;
43527;SDS011;52359;42.658;23.320;2023-07-29T06:08:57;6.50;;;4.05;;
43527;SDS011;52359;42.658;23.320;2023-07-29T06:11:24;6.10;;;3.72;;
43527;SDS011;52359;42.658;23.320;2023-07-29T06:13:50;10.82;;;5.00;;
43527;SDS011;52359;42.658;23.320;2023-07-29T06:16:16;5.35;;;4.05;;
43527;SDS011;52359;42.658;23.320;2023-07-29T06:18:42;7.75;;;3.65;;
43527;SDS011;52359;42.658;23.320;2023-07-29T06:21:08;4.63;;;3.65;;
43527;SDS011;52359;42.658;23.320;2023-07-29T06:23:37;4.25;;;3.30;;
43527;SDS011;52359;42.658;23.320;2023-07-29T06:26:03;8.32;;;3.72;;
43527;SDS011;52359;42.658;23.320;2023-07-29T06:28:29;16.48;;;3.50;;
43527;SDS011;52359;42.658;23.320;2023-07-29T06:30:55;7.03;;;3.53;;
43527;SDS011;52359;42.658;23.320;2023-07-29T06:33:21;6.65;;;3.70;;
43527;SDS011;52359;42.658;23.320;2023-07-29T06:35:47;5.90;;;3.67;;
43527;SDS011;52359;42.658;23.320;2023-07-29T06:38:13;4.63;;;3.90;;
43527;SDS011;52359;42.658;23.320;2023-07-29T06:40:39;12.15;;;3.72;;
43527;SDS011;52359;42.658;23.320;2023-07-29T06:43:05;9.02;;;3.67;;
43527;SDS011;52359;42.658;23.320;2023-07-29T06:45:31;8.05;;;4.00;;
43527;SDS011;52359;42.658;23.320;2023-07-29T06:47:57;5.72;;;3.70;;
43527;SDS011;52359;42.658;23.320;2023-07-29T06:50:23;10.13;;;4.20;;
43527;SDS011;52359;42.658;23.320;2023-07-29T06:52:49;8.68;;;3.55;;
43527;SDS011;52359;42.658;23.320;2023-07-29T06:55:15;7.38;;;3.70;;
43527;SDS011;52359;42.658;23.320;2023-07-29T06:57:41;7.80;;;5.68;;
43527;SDS011;52359;42.658;23.320;2023-07-29T07:00:07;9.55;;;3.97;;
43527;SDS011;52359;42.658;23.320;2023-07-29T07:02:34;6.10;;;3.40;;
43527;SDS011;52359;42.658;23.320;2023-07-29T07:05:00;6.10;;;3.58;;
43527;SDS011;52359;42.658;23.320;2023-07-29T07:07:26;8.75;;;3.55;;
43527;SDS011;52359;42.658;23.320;2023-07-29T07:09:52;4.82;;;3.10;;
43527;SDS011;52359;42.658;23.320;2023-07-29T07:12:18;5.40;;;3.80;;
43527;SDS011;52359;42.658;23.320;2023-07-29T07:14:44;4.22;;;3.00;;
43527;SDS011;52359;42.658;23.320;2023-07-29T07:17:10;6.85;;;2.88;;
43527;SDS011;52359;42.658;23.320;2023-07-29T07:19:36;6.43;;;3.40;;
43527;SDS011;52359;42.658;23.320;2023-07-29T07:22:02;3.78;;;3.05;;
43527;SDS011;52359;42.658;23.320;2023-07-29T07:24:29;6.20;;;3.80;;
43527;SDS011;52359;42.658;23.320;2023-07-29T07:26:55;4.70;;;2.55;;
43527;SDS011;52359;42.658;23.320;2023-07-29T07:29:21;6.13;;;2.97;;
43527;SDS011;52359;42.658;23.320;2023-07-29T07:31:51;7.90;;;3.05;;
43527;SDS011;52359;42.658;23.320;2023-07-29T07:34:20;3.72;;;3.15;;
43527;SDS011;52359;42.658;23.320;2023-07-29T07:36:46;3.22;;;2.97;;
43527;SDS011;52359;42.658;23.320;2023-07-29T07:39:12;4.93;;;3.70;;
43527;SDS011;52359;42.658;23.320;2023-07-29T07:41:38;7.57;;;2.90;;
43527;SDS011;52359;42.658;23.320;2023-07-29T07:44:05;9.60;;;3.40;;
43527;SDS011;52359;42.658;23.320;2023-07-29T07:46:30;5.70;;;3.40;;
43527;SDS011;52359;42.658;23.320;2023-07-29T07:48:56;3.53;;;3.17;;
43527;SDS011;52359;42.658;23.320;2023-07-29T07:51:22;7.15;;;3.78;;
43527;SDS011;52359;42.658;23.320;2023-07-29T07:53:48;15.55;;;4.35;;
43527;SDS011;52359;42.658;23.320;2023-07-29T07:56:14;5.88;;;3.33;;
43527;SDS011;52359;42.658;23.320;2023-07-29T07:58:40;7.00;;;3.72;;
43527;SDS011;52359;42.658;23.320;2023-07-29T08:01:06;14.07;;;3.67;;
43527;SDS011;52359;42.658;23.320;2023-07-29T08:03:33;4.40;;;3.53;;
43527;SDS011;52359;42.658;23.320;2023-07-29T08:05:59;6.65;;;3.30;;
43527;SDS011;52359;42.658;23.320;2023-07-29T08:08:25;16.90;;;3.47;;
43527;SDS011;52359;42.658;23.320;2023-07-29T08:10:52;5.90;;;3.90;;
43527;SDS011;52359;42.658;23.320;2023-07-29T08:13:19;5.47;;;3.38;;
43527;SDS011;52359;42.658;23.320;2023-07-29T08:15:48;5.65;;;4.03;;
43527;SDS011;52359;42.658;23.320;2023-07-29T08:18:15;6.43;;;4.05;;
43527;SDS011;52359;42.658;23.320;2023-07-29T08:20:41;9.55;;;3.78;;
43527;SDS011;52359;42.658;23.320;2023-07-29T08:23:07;6.53;;;3.70;;
43527;SDS011;52359;42.658;23.320;2023-07-29T08:25:33;4.60;;;3.42;;
43527;SDS011;52359;42.658;23.320;2023-07-29T08:27:59;10.80;;;4.13;;
43527;SDS011;52359;42.658;23.320;2023-07-29T08:30:25;8.82;;;3.60;;
43527;SDS011;52359;42.658;23.320;2023-07-29T08:32:51;11.25;;;3.50;;
43527;SDS011;52359;42.658;23.320;2023-07-29T08:35:17;7.22;;;3.35;;
43527;SDS011;52359;42.658;23.320;2023-07-29T08:37:43;10.63;;;3.83;;
43527;SDS011;52359;42.658;23.320;2023-07-29T08:40:09;5.13;;;3.33;;
43527;SDS011;52359;42.658;23.320;2023-07-29T08:42:35;3.05;;;2.80;;
43527;SDS011;52359;42.658;23.320;2023-07-29T08:45:07;13.90;;;3.72;;
43527;SDS011;52359;42.658;23.320;2023-07-29T08:47:34;7.63;;;3.33;;
43527;SDS011;52359;42.658;23.320;2023-07-29T08:50:01;9.65;;;3.05;;
43527;SDS011;52359;42.658;23.320;2023-07-29T08:52:27;11.13;;;3.10;;
43527;SDS011;52359;42.658;23.320;2023-07-29T08:54:55;5.35;;;2.90;;
43527;SDS011;52359;42.658;23.320;2023-07-29T08:57:21;3.15;;;2.50;;
43527;SDS011;52359;42.658;23.320;2023-07-29T08:59:48;6.20;;;2.95;;
43527;SDS011;52359;42.658;23.320;2023-07-29T09:02:14;5.00;;;2.53;;
43527;SDS011;52359;42.658;23.320;2023-07-29T09:04:40;3.30;;;2.15;;
43527;SDS011;52359;42.658;23.320;2023-07-29T09:07:06;6.22;;;2.20;;
43527;SDS011;52359;42.658;23.320;2023-07-29T09:09:32;6.22;;;2.28;;
43527;SDS011;52359;42.658;23.320;2023-07-29T09:11:58;4.70;;;2.65;;
43527;SDS011;52359;42.658;23.320;2023-07-29T09:14:24;2.78;;;2.13;;
43527;SDS011;52359;42.658;23.320;2023-07-29T09:16:51;8.23;;;2.85;;
43527;SDS011;52359;42.658;23.320;2023-07-29T09:19:17;3.47;;;2.33;;
43527;SDS011;52359;42.658;23.320;2023-07-29T09:21:43;6.75;;;2.38;;
43527;SDS011;52359;42.658;23.320;2023-07-29T09:24:12;4.15;;;2.45;;
43527;SDS011;52359;42.658;23.320;2023-07-29T09:26:47;2.65;;;2.13;;
43527;SDS011;52359;42.658;23.320;2023-07-29T09:29:14;4.82;;;2.20;;
43527;SDS011;52359;42.658;23.320;2023-07-29T09:31:40;2.95;;;2.00;;
43527;SDS011;52359;42.658;23.320;2023-07-29T09:34:06;5.65;;;1.80;;
43527;SDS011;52359;42.658;23.320;2023-07-29T09:36:32;2.22;;;2.00;;
43527;SDS011;52359;42.658;23.320;2023-07-29T09:38:58;6.68;;;2.25;;
43527;SDS011;52359;42.658;23.320;2023-07-29T09:41:25;3.92;;;2.08;;
43527;SDS011;52359;42.658;23.320;2023-07-29T09:43:58;2.30;;;2.10;;
43527;SDS011;52359;42.658;23.320;2023-07-29T09:46:25;3.05;;;1.80;;
43527;SDS011;52359;42.658;23.320;2023-07-29T09:48:52;4.85;;;1.98;;
43527;SDS011;52359;42.658;23.320;2023-07-29T09:51:20;1.92;;;1.73;;
43527;SDS011;52359;42.658;23.320;2023-07-29T09:53:47;7.00;;;1.75;;
43527;SDS011;52359;42.658;23.320;2023-07-29T09:56:13;5.93;;;1.65;;
43527;SDS011;52359;42.658;23.320;2023-07-29T09:58:40;2.65;;;1.83;;
43527;SDS011;52359;42.658;23.320;2023-07-29T10:01:08;1.48;;;1.38;;
43527;SDS011;52359;42.658;23.320;2023-07-29T10:03:34;3.85;;;1.70;;
43527;SDS011;52359;42.658;23.320;2023-07-29T10:06:04;1.48;;;1.30;;
43527;SDS011;52359;42.658;23.320;2023-07-29T10:08:31;3.47;;;1.58;;
43527;SDS011;52359;42.658;23.320;2023-07-29T10:11:00;10.82;;;1.92;;
43527;SDS011;52359;42.658;23.320;2023-07-29T10:13:26;2.05;;;1.30;;
43527;SDS011;52359;42.658;23.320;2023-07-29T10:15:55;1.20;;;1.10;;
43527;SDS011;52359;42.658;23.320;2023-07-29T10:18:23;1.38;;;1.27;;
43527;SDS011;52359;42.658;23.320;2023-07-29T10:20:50;1.30;;;1.30;;
43527;SDS011;52359;42.658;23.320;2023-07-29T10:23:17;2.72;;;1.30;;
43527;SDS011;52359;42.658;23.320;2023-07-29T10:25:46;1.30;;;1.20;;
43527;SDS011;52359;42.658;23.320;2023-07-29T10:28:13;1.33;;;1.27;;
43527;SDS011;52359;42.658;23.320;2023-07-29T10:30:41;5.05;;;1.10;;
43527;SDS011;52359;42.658;23.320;2023-07-29T10:33:07;4.72;;;1.13;;
43527;SDS011;52359;42.658;23.320;2023-07-29T10:35:33;1.20;;;1.10;;
43527;SDS011;52359;42.658;23.320;2023-07-29T10:38:00;1.02;;;1.02;;
43527;SDS011;52359;42.658;23.320;2023-07-29T10:40:28;1.65;;;1.40;;
43527;SDS011;52359;42.658;23.320;2023-07-29T10:43:09;1.17;;;1.17;;
43527;SDS011;52359;42.658;23.320;2023-07-29T10:45:41;4.38;;;1.13;;
43527;SDS011;52359;42.658;23.320;2023-07-29T10:48:11;1.42;;;1.38;;
43527;SDS011;52359;42.658;23.320;2023-07-29T10:50:37;2.08;;;1.40;;
43527;SDS011;52359;42.658;23.320;2023-07-29T10:53:04;1.05;;;1.05;;
43527;SDS011;52359;42.658;23.320;2023-07-29T10:55:32;1.38;;;1.20;;
43527;SDS011;52359;42.658;23.320;2023-07-29T11:00:30;1.02;;;1.02;;
43527;SDS011;52359;42.658;23.320;2023-07-29T11:03:05;0.90;;;0.90;;
43527;SDS011;52359;42.658;23.320;2023-07-29T11:05:47;0.93;;;0.73;;
43527;SDS011;52359;42.658;23.320;2023-07-29T11:08:17;0.77;;;0.77;;
43527;SDS011;52359;42.658;23.320;2023-07-29T11:10:44;0.95;;;0.82;;
43527;SDS011;52359;42.658;23.320;2023-07-29T11:13:10;1.15;;;1.00;;
43527;SDS011;52359;42.658;23.320;2023-07-29T11:15:37;3.08;;;1.10;;
43527;SDS011;52359;42.658;23.320;2023-07-29T11:18:04;1.30;;;1.20;;
43527;SDS011;52359;42.658;23.320;2023-07-29T11:20:33;1.50;;;1.40;;
43527;SDS011;52359;42.658;23.320;2023-07-29T11:23:00;1.80;;;1.00;;
43527;SDS011;52359;42.658;23.320;2023-07-29T11:25:28;7.38;;;1.30;;
43527;SDS011;52359;42.658;23.320;2023-07-29T11:27:55;1.23;;;1.13;;
43527;SDS011;52359;42.658;23.320;2023-07-29T11:30:22;2.17;;;1.27;;
43527;SDS011;52359;42.658;23.320;2023-07-29T11:32:48;1.42;;;1.10;;
43527;SDS011;52359;42.658;23.320;2023-07-29T11:35:18;1.42;;;1.33;;
43527;SDS011;52359;42.658;23.320;2023-07-29T11:37:44;3.42;;;1.40;;
43527;SDS011;52359;42.658;23.320;2023-07-29T11:40:15;3.55;;;1.30;;
43527;SDS011;52359;42.658;23.320;2023-07-29T11:42:41;1.30;;;1.20;;
43527;SDS011;52359;42.658;23.320;2023-07-29T11:45:07;1.65;;;1.45;;
43527;SDS011;52359;42.658;23.320;2023-07-29T11:47:34;1.75;;;1.30;;
43527;SDS011;52359;42.658;23.320;2023-07-29T11:50:02;2.47;;;1.30;;
43527;SDS011;52359;42.658;23.320;2023-07-29T11:52:28;4.15;;;1.30;;
43527;SDS011;52359;42.658;23.320;2023-07-29T11:54:54;3.58;;;1.13;;
43527;SDS011;52359;42.658;23.320;2023-07-29T11:57:20;1.17;;;1.15;;
43527;SDS011;52359;42.658;23.320;2023-07-29T11:59:46;2.75;;;1.15;;
43527;SDS011;52359;42.658;23.320;2023-07-29T12:02:13;1.15;;;1.15;;
43527;SDS011;52359;42.658;23.320;2023-07-29T12:04:40;4.72;;;1.30;;
43527;SDS011;52359;42.658;23.320;2023-07-29T12:07:08;4.95;;;1.23;;
43527;SDS011;52359;42.658;23.320;2023-07-29T12:09:34;2.10;;;1.30;;
43527;SDS011;52359;42.658;23.320;2023-07-29T12:12:01;3.78;;;1.48;;
43527;SDS011;52359;42.658;23.320;2023-07-29T12:14:31;2.88;;;1.55;;
43527;SDS011;52359;42.658;23.320;2023-07-29T12:16:59;3.53;;;1.33;;
43527;SDS011;52359;42.658;23.320;2023-07-29T12:19:31;3.15;;;1.30;;
43527;SDS011;52359;42.658;23.320;2023-07-29T12:24:23;1.20;;;1.20;;
43527;SDS011;52359;42.658;23.320;2023-07-29T12:26:50;1.70;;;1.30;;
43527;SDS011;52359;42.658;23.320;2023-07-29T12:29:17;2.42;;;1.33;;
43527;SDS011;52359;42.658;23.320;2023-07-29T12:31:44;6.20;;;1.40;;
43527;SDS011;52359;42.658;23.320;2023-07-29T12:34:17;1.40;;;1.30;;
43527;SDS011;52359;42.658;23.320;2023-07-29T12:39:18;1.17;;;1.17;;
43527;SDS011;52359;42.658;23.320;2023-07-29T12:41:46;1.27;;;1.20;;
43527;SDS011;52359;42.658;23.320;2023-07-29T12:44:12;1.65;;;1.55;;
43527;SDS011;52359;42.658;23.320;2023-07-29T12:46:38;1.40;;;1.20;;
43527;SDS011;52359;42.658;23.320;2023-07-29T12:49:04;1.33;;;1.23;;
43527;SDS011;52359;42.658;23.320;2023-07-29T12:51:30;1.92;;;1.13;;
43527;SDS011;52359;42.658;23.320;2023-07-29T12:53:58;1.30;;;1.20;;
43527;SDS011;52359;42.658;23.320;2023-07-29T12:56:24;4.30;;;1.30;;
43527;SDS011;52359;42.658;23.320;2023-07-29T12:58:51;3.75;;;1.55;;
43527;SDS011;52359;42.658;23.320;2023-07-29T13:01:17;1.55;;;1.45;;
43527;SDS011;52359;42.658;23.320;2023-07-29T13:03:47;1.25;;;1.25;;
43527;SDS011;52359;42.658;23.320;2023-07-29T13:06:14;6.27;;;4.47;;
43527;SDS011;52359;42.658;23.320;2023-07-29T13:08:41;2.80;;;1.58;;
43527;SDS011;52359;42.658;23.320;2023-07-29T13:11:07;2.38;;;1.35;;
43527;SDS011;52359;42.658;23.320;2023-07-29T13:13:33;10.07;;;1.85;;
43527;SDS011;52359;42.658;23.320;2023-07-29T13:15:59;6.70;;;2.47;;
43527;SDS011;52359;42.658;23.320;2023-07-29T13:18:26;2.47;;;2.28;;
43527;SDS011;52359;42.658;23.320;2023-07-29T13:20:52;1.70;;;1.60;;
43527;SDS011;52359;42.658;23.320;2023-07-29T13:23:18;3.17;;;1.30;;
43527;SDS011;52359;42.658;23.320;2023-07-29T13:25:44;1.38;;;1.30;;
43527;SDS011;52359;42.658;23.320;2023-07-29T13:28:10;1.50;;;1.40;;
43527;SDS011;52359;42.658;23.320;2023-07-29T13:30:36;1.60;;;1.50;;
43527;SDS011;52359;42.658;23.320;2023-07-29T13:33:03;1.52;;;1.42;;
43527;SDS011;52359;42.658;23.320;2023-07-29T13:35:29;2.42;;;1.80;;
43527;SDS011;52359;42.658;23.320;2023-07-29T13:37:56;4.43;;;1.50;;
43527;SDS011;52359;42.658;23.320;2023-07-29T13:40:22;1.35;;;1.30;;
43527;SDS011;52359;42.658;23.320;2023-07-29T13:42:48;8.05;;;1.65;;
43527;SDS011;52359;42.658;23.320;2023-07-29T13:45:14;2.03;;;1.50;;
43527;SDS011;52359;42.658;23.320;2023-07-29T13:47:40;4.10;;;1.50;;
43527;SDS011;52359;42.658;23.320;2023-07-29T13:50:06;5.40;;;1.90;;
43527;SDS011;52359;42.658;23.320;2023-07-29T13:52:33;1.63;;;1.58;;
43527;SDS011;52359;42.658;23.320;2023-07-29T13:54:59;3.97;;;2.50;;
43527;SDS011;52359;42.658;23.320;2023-07-29T13:57:25;3.72;;;1.77;;
43527;SDS011;52359;42.658;23.320;2023-07-29T13:59:51;5.03;;;1.75;;
43527;SDS011;52359;42.658;23.320;2023-07-29T14:02:17;5.13;;;2.03;;
43527;SDS011;52359;42.658;23.320;2023-07-29T14:04:43;6.43;;;1.88;;
43527;SDS011;52359;42.658;23.320;2023-07-29T14:07:09;8.18;;;2.10;;
43527;SDS011;52359;42.658;23.320;2023-07-29T14:09:35;2.20;;;2.00;;
43527;SDS011;52359;42.658;23.320;2023-07-29T14:12:03;3.78;;;1.50;;
43527;SDS011;52359;42.658;23.320;2023-07-29T14:14:29;3.53;;;1.60;;
43527;SDS011;52359;42.658;23.320;2023-07-29T14:16:55;5.00;;;1.98;;
43527;SDS011;52359;42.658;23.320;2023-07-29T14:19:21;4.53;;;1.75;;
43527;SDS011;52359;42.658;23.320;2023-07-29T14:21:47;2.53;;;1.40;;
43527;SDS011;52359;42.658;23.320;2023-07-29T14:24:13;3.65;;;1.98;;
43527;SDS011;52359;42.658;23.320;2023-07-29T14:26:40;11.90;;;3.38;;
43527;SDS011;52359;42.658;23.320;2023-07-29T14:29:06;4.85;;;1.58;;
43527;SDS011;52359;42.658;23.320;2023-07-29T14:31:32;1.77;;;1.63;;
43527;SDS011;52359;42.658;23.320;2023-07-29T14:33:58;8.32;;;1.80;;
43527;SDS011;52359;42.658;23.320;2023-07-29T14:36:25;2.05;;;1.85;;
43527;SDS011;52359;42.658;23.320;2023-07-29T14:38:51;5.60;;;1.77;;
43527;SDS011;52359;42.658;23.320;2023-07-29T14:41:17;2.00;;;1.80;;
43527;SDS011;52359;42.658;23.320;2023-07-29T14:43:43;7.35;;;1.92;;
43527;SDS011;52359;42.658;23.320;2023-07-29T14:46:09;1.95;;;1.75;;
43527;SDS011;52359;42.658;23.320;2023-07-29T14:48:35;4.07;;;1.70;;
43527;SDS011;52359;42.658;23.320;2023-07-29T14:51:01;7.40;;;1.55;;
43527;SDS011;52359;42.658;23.320;2023-07-29T14:53:27;3.90;;;1.42;;
43527;SDS011;52359;42.658;23.320;2023-07-29T14:55:53;5.78;;;1.80;;
43527;SDS011;52359;42.658;23.320;2023-07-29T14:58:19;4.70;;;1.90;;
43527;SDS011;52359;42.658;23.320;2023-07-29T15:00:45;1.95;;;1.20;;
43527;SDS011;52359;42.658;23.320;2023-07-29T15:03:11;2.05;;;1.63;;
43527;SDS011;52359;42.658;23.320;2023-07-29T15:05:37;3.65;;;1.73;;
43527;SDS011;52359;42.658;23.320;2023-07-29T15:08:05;3.65;;;1.70;;
43527;SDS011;52359;42.658;23.320;2023-07-29T15:10:31;2.92;;;1.48;;
43527;SDS011;52359;42.658;23.320;2023-07-29T15:12:57;5.13;;;2.00;;
43527;SDS011;52359;42.658;23.320;2023-07-29T15:15:23;8.65;;;1.70;;
43527;SDS011;52359;42.658;23.320;2023-07-29T15:17:49;6.18;;;2.10;;
43527;SDS011;52359;42.658;23.320;2023-07-29T15:20:15;9.90;;;1.77;;
43527;SDS011;52359;42.658;23.320;2023-07-29T15:22:41;2.78;;;1.85;;
43527;SDS011;52359;42.658;23.320;2023-07-29T15:25:08;3.15;;;2.50;;
43527;SDS011;52359;42.658;23.320;2023-07-29T15:27:34;5.55;;;1.45;;
43527;SDS011;52359;42.658;23.320;2023-07-29T15:30:00;2.53;;;1.58;;
43527;SDS011;52359;42.658;23.320;2023-07-29T15:32:26;3.65;;;2.08;;
43527;SDS011;52359;42.658;23.320;2023-07-29T15:34:53;1.85;;;1.67;;
43527;SDS011;52359;42.658;23.320;2023-07-29T15:37:19;3.60;;;1.85;;
43527;SDS011;52359;42.658;23.320;2023-07-29T15:39:45;7.90;;;1.60;;
43527;SDS011;52359;42.658;23.320;2023-07-29T15:42:11;2.05;;;1.50;;
43527;SDS011;52359;42.658;23.320;2023-07-29T15:44:37;1.85;;;1.75;;
43527;SDS011;52359;42.658;23.320;2023-07-29T15:47:03;8.90;;;1.77;;
43527;SDS011;52359;42.658;23.320;2023-07-29T15:49:29;2.38;;;1.70;;
43527;SDS011;52359;42.658;23.320;2023-07-29T15:51:55;1.58;;;1.48;;
43527;SDS011;52359;42.658;23.320;2023-07-29T15:54:21;1.92;;;1.83;;
43527;SDS011;52359;42.658;23.320;2023-07-29T15:56:47;2.63;;;1.58;;
43527;SDS011;52359;42.658;23.320;2023-07-29T15:59:13;1.65;;;1.55;;
43527;SDS011;52359;42.658;23.320;2023-07-29T16:01:39;1.60;;;1.50;;
43527;SDS011;52359;42.658;23.320;2023-07-29T16:04:05;1.90;;;1.70;;
43527;SDS011;52359;42.658;23.320;2023-07-29T16:06:31;2.00;;;1.90;;
43527;SDS011;52359;42.658;23.320;2023-07-29T16:08:57;4.47;;;1.90;;
43527;SDS011;52359;42.658;23.320;2023-07-29T16:11:26;2.20;;;1.95;;
43527;SDS011;52359;42.658;23.320;2023-07-29T16:13:53;3.90;;;1.85;;
43527;SDS011;52359;42.658;23.320;2023-07-29T16:16:19;7.22;;;2.00;;
43527;SDS011;52359;42.658;23.320;2023-07-29T16:18:45;2.45;;;2.10;;
43527;SDS011;52359;42.658;23.320;2023-07-29T16:21:11;2.45;;;1.70;;
43527;SDS011;52359;42.658;23.320;2023-07-29T16:23:37;2.00;;;1.90;;
43527;SDS011;52359;42.658;23.320;2023-07-29T16:26:03;1.90;;;1.70;;
43527;SDS011;52359;42.658;23.320;2023-07-29T16:28:29;1.95;;;1.77;;
43527;SDS011;52359;42.658;23.320;2023-07-29T16:30:55;3.47;;;1.70;;
43527;SDS011;52359;42.658;23.320;2023-07-29T16:33:21;4.40;;;1.83;;
43527;SDS011;52359;42.658;23.320;2023-07-29T16:35:47;2.15;;;1.73;;
43527;SDS011;52359;42.658;23.320;2023-07-29T16:38:13;1.73;;;1.50;;
43527;SDS011;52359;42.658;23.320;2023-07-29T16:40:39;1.90;;;1.75;;
43527;SDS011;52359;42.658;23.320;2023-07-29T16:43:05;2.38;;;1.40;;
43527;SDS011;52359;42.658;23.320;2023-07-29T16:45:31;1.60;;;1.50;;
43527;SDS011;52359;42.658;23.320;2023-07-29T16:47:57;1.85;;;1.75;;
43527;SDS011;52359;42.658;23.320;2023-07-29T16:50:23;2.90;;;1.90;;
43527;SDS011;52359;42.658;23.320;2023-07-29T16:52:49;2.25;;;1.70;;
43527;SDS011;52359;42.658;23.320;2023-07-29T16:55:18;5.18;;;1.85;;
43527;SDS011;52359;42.658;23.320;2023-07-29T16:57:45;1.90;;;1.80;;
43527;SDS011;52359;42.658;23.320;2023-07-29T17:00:11;3.97;;;1.50;;
43527;SDS011;52359;42.658;23.320;2023-07-29T17:02:38;2.58;;;1.77;;
43527;SDS011;52359;42.658;23.320;2023-07-29T17:05:04;1.27;;;1.27;;
43527;SDS011;52359;42.658;23.320;2023-07-29T17:07:31;2.05;;;1.48;;
43527;SDS011;52359;42.658;23.320;2023-07-29T17:09:57;7.50;;;1.63;;
43527;SDS011;52359;42.658;23.320;2023-07-29T17:12:23;1.30;;;1.25;;
43527;SDS011;52359;42.658;23.320;2023-07-29T17:14:49;1.63;;;1.52;;
43527;SDS011;52359;42.658;23.320;2023-07-29T17:17:15;2.78;;;1.63;;
43527;SDS011;52359;42.658;23.320;2023-07-29T17:19:41;1.15;;;1.15;;
43527;SDS011;52359;42.658;23.320;2023-07-29T17:22:09;4.57;;;1.65;;
43527;SDS011;52359;42.658;23.320;2023-07-29T17:24:35;2.55;;;1.63;;
43527;SDS011;52359;42.658;23.320;2023-07-29T17:27:01;5.07;;;1.40;;
43527;SDS011;52359;42.658;23.320;2023-07-29T17:29:27;4.93;;;2.35;;
43527;SDS011;52359;42.658;23.320;2023-07-29T17:31:53;1.95;;;1.85;;
43527;SDS011;52359;42.658;23.320;2023-07-29T17:34:19;1.20;;;1.20;;
43527;SDS011;52359;42.658;23.320;2023-07-29T17:36:47;1.40;;;1.40;;
43527;SDS011;52359;42.658;23.320;2023-07-29T17:39:13;1.83;;;1.50;;
43527;SDS011;52359;42.658;23.320;2023-07-29T17:41:38;3.88;;;1.90;;
43527;SDS011;52359;42.658;23.320;2023-07-29T17:44:04;3.60;;;1.42;;
43527;SDS011;52359;42.658;23.320;2023-07-29T17:46:30;3.22;;;1.52;;
43527;SDS011;52359;42.658;23.320;2023-07-29T17:48:58;2.50;;;1.75;;
43527;SDS011;52359;42.658;23.320;2023-07-29T17:51:24;1.52;;;1.40;;
43527;SDS011;52359;42.658;23.320;2023-07-29T17:53:50;5.80;;;2.40;;
43527;SDS011;52359;42.658;23.320;2023-07-29T17:56:16;6.93;;;5.28;;
43527;SDS011;52359;42.658;23.320;2023-07-29T17:58:42;8.30;;;4.88;;
43527;SDS011;52359;42.658;23.320;2023-07-29T18:01:08;4.93;;;3.67;;
43527;SDS011;52359;42.658;23.320;2023-07-29T18:03:34;5.80;;;3.45;;
43527;SDS011;52359;42.658;23.320;2023-07-29T18:06:00;11.77;;;6.00;;
43527;SDS011;52359;42.658;23.320;2023-07-29T18:08:26;5.93;;;2.47;;
43527;SDS011;52359;42.658;23.320;2023-07-29T18:10:52;8.68;;;4.00;;
43527;SDS011;52359;42.658;23.320;2023-07-29T18:13:21;11.45;;;2.97;;
43527;SDS011;52359;42.658;23.320;2023-07-29T18:15:50;6.95;;;2.95;;
43527;SDS011;52359;42.658;23.320;2023-07-29T18:18:18;6.55;;;2.78;;
43527;SDS011;52359;42.658;23.320;2023-07-29T18:20:44;9.02;;;2.90;;
43527;SDS011;52359;42.658;23.320;2023-07-29T18:23:10;4.85;;;2.85;;
43527;SDS011;52359;42.658;23.320;2023-07-29T18:25:37;6.03;;;2.40;;
43527;SDS011;52359;42.658;23.320;2023-07-29T18:28:03;10.48;;;4.22;;
43527;SDS011;52359;42.658;23.320;2023-07-29T18:30:29;5.65;;;3.42;;
43527;SDS011;52359;42.658;23.320;2023-07-29T18:32:55;9.52;;;5.70;;
43527;SDS011;52359;42.658;23.320;2023-07-29T18:35:21;12.63;;;7.00;;
43527;SDS011;52359;42.658;23.320;2023-07-29T18:37:48;14.73;;;5.63;;
43527;SDS011;52359;42.658;23.320;2023-07-29T18:40:22;16.15;;;5.60;;
43527;SDS011;52359;42.658;23.320;2023-07-29T18:42:48;8.93;;;4.15;;
43527;SDS011;52359;42.658;23.320;2023-07-29T18:45:15;15.65;;;4.55;;
43527;SDS011;52359;42.658;23.320;2023-07-29T18:47:41;18.67;;;4.82;;
43527;SDS011;52359;42.658;23.320;2023-07-29T18:50:07;17.17;;;9.88;;
43527;SDS011;52359;42.658;23.320;2023-07-29T18:52:33;10.73;;;6.63;;
43527;SDS011;52359;42.658;23.320;2023-07-29T18:54:59;13.80;;;6.60;;
43527;SDS011;52359;42.658;23.320;2023-07-29T18:57:25;20.85;;;12.82;;
43527;SDS011;52359;42.658;23.320;2023-07-29T18:59:51;11.90;;;6.70;;
43527;SDS011;52359;42.658;23.320;2023-07-29T19:02:18;18.48;;;11.85;;
43527;SDS011;52359;42.658;23.320;2023-07-29T19:04:44;13.43;;;7.10;;
43527;SDS011;52359;42.658;23.320;2023-07-29T19:07:15;16.50;;;6.25;;
43527;SDS011;52359;42.658;23.320;2023-07-29T19:09:43;6.90;;;4.35;;
43527;SDS011;52359;42.658;23.320;2023-07-29T19:12:12;13.18;;;5.68;;
43527;SDS011;52359;42.658;23.320;2023-07-29T19:14:39;14.90;;;4.57;;
43527;SDS011;52359;42.658;23.320;2023-07-29T19:17:05;10.90;;;4.53;;
43527;SDS011;52359;42.658;23.320;2023-07-29T19:19:31;16.15;;;8.30;;
43527;SDS011;52359;42.658;23.320;2023-07-29T19:21:57;16.98;;;7.22;;
43527;SDS011;52359;42.658;23.320;2023-07-29T19:24:23;25.27;;;10.98;;
43527;SDS011;52359;42.658;23.320;2023-07-29T19:26:52;24.23;;;10.85;;
43527;SDS011;52359;42.658;23.320;2023-07-29T19:29:19;9.80;;;5.00;;
43527;SDS011;52359;42.658;23.320;2023-07-29T19:31:45;18.70;;;4.93;;
43527;SDS011;52359;42.658;23.320;2023-07-29T19:34:11;7.15;;;4.28;;
